Portada
METAR-TAF:

METAR-TAF

Aeroports :

Block Island, Rhode Island, Estats Units d'Amèrica

latitud: 41-10N, longitud: 071-34W, altitud: 33 m

Observació

L'informe es va fer fa 40 minuts, a les 17:56 UTC
Vent 14 kt del Sud-Oest amb ràfegues de 20 kt
Temperatura 19°C
Humitat 83%
Pressió 1012 hPa
Visibilitat: 16.1 km
Cel clar

METAR: KBID 161756Z AUTO 22014G20KT 10SM CLR 19/16 A2989 RMK AO2 SLP126 6//// T01940161 10194 20167 58012

Hora: 14:36 (18:36 UTC)


TAF: manca

Observacions i pronòstics meteorològics de més de 4000 aeroports (METAR i TAF).

Les estacions disponibles són els punts grocs i vermells al mapa.

Posi el ratolí al punt desitjat per veure el nom de l'estació.

Feu clic per veure les observacions i els pronòstics meteorològics.

Per canviar el mapa: feu clic els botons verds amb una creu de color negre per apropar; al botó verd amb un guió per allunyar la imatge; o en les fletxes verdes per a mapes adjacents.


METAR-TAF: